Time;durP1;ratioP1;P1;durP2;ratioP2;P2;SDS_P1;SDS_P2;PMS_P1;PMS_P2;Temp;Humidity;BMP_temperature;BMP_pressure;BME280_temperature;BME280_humidity;BME280_pressure;Samples;Min_cycle;Max_cycle;Signal;HPM_P1;HPM_P2
2021/05/01 00:04:02;;;;;;;;;;;9.20;99.90;;;;;;10444770;28;20016;-69
2021/05/01 00:09:04;;;;;;;;;;;9.20;99.90;;;;;;10445756;28;20016;-69
2021/05/01 00:14:06;;;;;;;;;;;9.10;99.90;;;;;;10445322;28;19974;-68
2021/05/01 00:19:07;;;;;;;;;;;9.00;99.90;;;;;;10445158;28;19960;-69
2021/05/01 00:24:08;;;;;;;;;;;8.80;99.90;;;;;;10444639;28;19928;-68
2021/05/01 00:29:10;;;;;;;;;;;8.60;99.90;;;;;;10445097;28;20047;-68
2021/05/01 00:34:11;;;;;;;;;;;8.60;99.90;;;;;;10443480;28;20038;-68
2021/05/01 00:39:12;;;;;;;;;;;8.50;99.90;;;;;;10444598;28;20015;-68
2021/05/01 00:44:14;;;;;;;;;;;8.50;99.90;;;;;;10452424;28;20019;-68
2021/05/01 00:49:15;;;;;;;;;;;8.50;99.90;;;;;;10451526;28;19929;-68
2021/05/01 00:54:17;;;;;;;;;;;8.50;99.90;;;;;;10451435;28;19929;-68
2021/05/01 00:59:18;;;;;;;;;;;8.40;99.90;;;;;;10452331;28;20025;-68
2021/05/01 01:04:19;;;;;;;;;;;8.30;99.90;;;;;;10452545;28;20023;-68
2021/05/01 01:09:21;;;;;;;;;;;8.10;99.90;;;;;;10462175;28;20365;-68
2021/05/01 01:14:22;;;;;;;;;;;8.10;99.90;;;;;;10456738;28;19924;-68
2021/05/01 01:19:23;;;;;;;;;;;8.00;99.90;;;;;;10450847;28;20015;-68
2021/05/01 01:24:30;;;;;;;;;;;7.80;99.90;;;;;;10450286;28;20091;-69
2021/05/01 01:29:31;;;;;;;;;;;7.70;99.90;;;;;;10449629;28;20549;-68
2021/05/01 01:34:32;;;;;;;;;;;7.40;99.90;;;;;;10449891;28;20318;-68
2021/05/01 01:39:34;;;;;;;;;;;7.20;99.90;;;;;;10464909;28;20010;-68
2021/05/01 01:44:35;;;;;;;;;;;7.00;99.90;;;;;;10449466;28;19925;-68
2021/05/01 01:49:40;;;;;;;;;;;6.90;99.90;;;;;;10447930;28;20020;-68
2021/05/01 01:54:41;;;;;;;;;;;6.80;99.90;;;;;;10448319;28;20675;-69
2021/05/01 01:59:44;;;;;;;;;;;6.80;99.90;;;;;;10448319;28;20495;-68
2021/05/01 02:04:45;;;;;;;;;;;6.60;99.90;;;;;;10455090;28;19974;-68
2021/05/01 02:09:46;;;;;;;;;;;6.50;99.90;;;;;;10455607;28;19928;-69
2021/05/01 02:14:48;;;;;;;;;;;6.30;99.90;;;;;;10455419;28;20011;-68
2021/05/01 02:19:49;;;;;;;;;;;6.40;99.90;;;;;;10456172;28;20003;-68
2021/05/01 02:24:50;;;;;;;;;;;6.30;99.90;;;;;;10454216;28;20016;-67
2021/05/01 02:29:52;;;;;;;;;;;6.20;99.90;;;;;;10453131;28;20027;-68
2021/05/01 02:34:53;;;;;;;;;;;6.10;99.90;;;;;;10454680;28;20016;-67
2021/05/01 02:39:54;;;;;;;;;;;6.00;99.90;;;;;;10454728;28;20393;-68
2021/05/01 02:44:56;;;;;;;;;;;5.80;99.90;;;;;;10453988;28;19956;-68
2021/05/01 02:49:57;;;;;;;;;;;5.80;99.90;;;;;;10453341;28;19925;-68
2021/05/01 02:54:58;;;;;;;;;;;5.70;99.90;;;;;;10452651;28;20376;-67
2021/05/01 03:00:02;;;;;;;;;;;5.60;99.90;;;;;;10431831;28;20024;-68
2021/05/01 03:05:05;;;;;;;;;;;5.50;99.90;;;;;;10448622;28;19925;-68
2021/05/01 03:10:09;;;;;;;;;;;5.40;99.90;;;;;;10432830;28;19933;-68
2021/05/01 03:15:11;;;;;;;;;;;5.40;99.90;;;;;;10446751;28;20182;-68
2021/05/01 03:20:13;;;;;;;;;;;5.30;99.90;;;;;;10446227;28;20006;-67
2021/05/01 03:25:18;;;;;;;;;;;5.30;99.90;;;;;;10445919;28;20415;-68
2021/05/01 03:30:20;;;;;;;;;;;5.20;99.90;;;;;;10447294;28;19963;-67
2021/05/01 03:35:21;;;;;;;;;;;5.10;99.90;;;;;;10446065;28;20423;-68
2021/05/01 03:40:23;;;;;;;;;;;5.00;99.90;;;;;;10446462;28;19979;-68
2021/05/01 03:45:24;;;;;;;;;;;4.90;99.90;;;;;;10446427;28;20011;-68
2021/05/01 03:50:25;;;;;;;;;;;4.90;99.90;;;;;;10445423;28;20019;-68
2021/05/01 03:55:27;;;;;;;;;;;4.80;99.90;;;;;;10446175;28;19925;-67
2021/05/01 04:00:28;;;;;;;;;;;4.80;99.90;;;;;;10445403;28;19935;-68
2021/05/01 04:05:29;;;;;;;;;;;4.80;99.90;;;;;;10445419;28;20015;-68
2021/05/01 04:10:31;;;;;;;;;;;4.90;99.90;;;;;;10445447;28;20300;-67
2021/05/01 04:15:32;;;;;;;;;;;4.90;99.90;;;;;;10444197;28;19929;-68
2021/05/01 04:20:33;;;;;;;;;;;5.00;99.90;;;;;;10444687;28;20019;-67
2021/05/01 04:25:35;;;;;;;;;;;5.20;99.90;;;;;;10443414;28;20359;-67
2021/05/01 04:30:36;;;;;;;;;;;5.20;99.90;;;;;;10425463;28;20014;-67
2021/05/01 04:35:37;;;;;;;;;;;5.20;99.90;;;;;;10445820;28;20023;-68
2021/05/01 04:40:38;;;;;;;;;;;5.30;99.90;;;;;;10445246;28;20016;-68
2021/05/01 04:45:41;;;;;;;;;;;5.60;99.90;;;;;;10444713;28;19925;-68
2021/05/01 04:50:42;;;;;;;;;;;6.30;99.90;;;;;;10444602;28;20004;-68
2021/05/01 04:55:44;;;;;;;;;;;7.10;99.90;;;;;;10444740;28;19924;-68
2021/05/01 05:00:45;;;;;;;;;;;7.80;99.90;;;;;;10444640;28;20341;-68
2021/05/01 05:05:46;;;;;;;;;;;8.50;99.90;;;;;;10443819;28;20028;-68
2021/05/01 05:10:47;;;;;;;;;;;9.10;99.90;;;;;;10445214;28;20032;-69
2021/05/01 05:15:49;;;;;;;;;;;8.70;99.90;;;;;;10444595;28;20016;-69
2021/05/01 05:20:51;;;;;;;;;;;8.20;99.90;;;;;;10442741;28;19924;-68
2021/05/01 05:25:52;;;;;;;;;;;7.80;99.90;;;;;;10444233;28;19983;-69
2021/05/01 05:30:55;;;;;;;;;;;7.60;99.90;;;;;;10450246;28;19925;-68
2021/05/01 05:35:57;;;;;;;;;;;7.80;99.90;;;;;;10451358;28;19971;-69
2021/05/01 05:40:58;;;;;;;;;;;8.00;99.90;;;;;;10451827;28;20377;-69
2021/05/01 05:46:11;;;;;;;;;;;8.20;99.90;;;;;;10450865;28;20011;-69
2021/05/01 05:51:12;;;;;;;;;;;8.30;99.90;;;;;;10450641;28;20396;-69
2021/05/01 05:56:14;;;;;;;;;;;8.80;99.90;;;;;;10450650;28;20011;-69
2021/05/01 06:01:15;;;;;;;;;;;8.90;99.90;;;;;;10450657;28;19931;-69
2021/05/01 06:06:24;;;;;;;;;;;9.40;99.90;;;;;;10449916;28;19925;-69
2021/05/01 06:11:26;;;;;;;;;;;10.00;99.90;;;;;;10449562;28;20007;-69
2021/05/01 06:16:28;;;;;;;;;;;10.40;99.90;;;;;;10449334;28;20007;-68
2021/05/01 06:21:29;;;;;;;;;;;10.80;99.90;;;;;;10448739;28;20007;-68
2021/05/01 06:26:31;;;;;;;;;;;11.00;99.90;;;;;;10448696;28;19964;-68
2021/05/01 06:31:36;;;;;;;;;;;11.10;99.90;;;;;;10448717;28;20274;-68
2021/05/01 06:36:39;;;;;;;;;;;11.00;99.90;;;;;;10449215;28;19925;-69
2021/05/01 06:41:51;;;;;;;;;;;11.20;99.90;;;;;;10447172;28;20023;-69
2021/05/01 06:46:52;;;;;;;;;;;11.10;99.90;;;;;;10447987;28;20015;-68
2021/05/01 06:51:55;;;;;;;;;;;10.80;99.90;;;;;;10429990;28;19929;-68
2021/05/01 06:56:57;;;;;;;;;;;10.80;99.90;;;;;;10429880;28;20297;-68
2021/05/01 07:01:58;;;;;;;;;;;10.70;99.90;;;;;;10413194;28;20437;-68
2021/05/01 07:07:22;;;;;;;;;;;10.80;99.90;;;;;;10412522;28;20395;-68
2021/05/01 07:12:24;;;;;;;;;;;10.50;99.90;;;;;;10418796;28;20292;-68
2021/05/01 07:17:25;;;;;;;;;;;10.60;99.90;;;;;;10412332;28;20015;-68
2021/05/01 07:22:27;;;;;;;;;;;10.90;99.90;;;;;;10426621;28;20320;-68
2021/05/01 07:27:32;;;;;;;;;;;11.10;99.90;;;;;;10412139;28;19932;-68
2021/05/01 07:32:35;;;;;;;;;;;11.20;99.90;;;;;;10403372;28;19968;-68
2021/05/01 07:37:37;;;;;;;;;;;11.40;99.90;;;;;;10416183;28;20025;-68
2021/05/01 07:42:41;;;;;;;;;;;11.40;99.90;;;;;;10412648;28;19925;-69
2021/05/01 07:47:43;;;;;;;;;;;11.50;99.90;;;;;;10420921;28;19972;-69
2021/05/01 07:52:45;;;;;;;;;;;11.70;99.90;;;;;;10430042;28;20352;-69
2021/05/01 07:57:47;;;;;;;;;;;11.90;99.90;;;;;;10435309;28;19964;-68
2021/05/01 08:02:49;;;;;;;;;;;11.90;98.80;;;;;;10436522;28;20267;-69
2021/05/01 08:07:52;;;;;;;;;;;11.70;99.40;;;;;;10429040;28;20512;-69
2021/05/01 08:12:54;;;;;;;;;;;11.60;99.00;;;;;;10442009;28;20009;-68
2021/05/01 08:17:55;;;;;;;;;;;11.70;97.80;;;;;;10443781;28;20019;-69
2021/05/01 08:22:56;;;;;;;;;;;12.00;97.60;;;;;;10449221;28;19983;-61
2021/05/01 08:27:58;;;;;;;;;;;12.00;97.20;;;;;;10442966;28;19991;-61
2021/05/01 08:32:59;;;;;;;;;;;12.10;96.60;;;;;;10452986;28;19982;-61
2021/05/01 08:38:00;;;;;;;;;;;12.10;93.50;;;;;;10443495;28;20377;-61
2021/05/01 08:43:02;;;;;;;;;;;12.30;91.30;;;;;;10445460;28;20497;-61
2021/05/01 08:48:03;;;;;;;;;;;12.70;86.50;;;;;;10439095;28;20016;-61
2021/05/01 08:53:06;;;;;;;;;;;13.00;86.00;;;;;;10456261;28;20398;-61
2021/05/01 08:58:09;;;;;;;;;;;13.10;83.90;;;;;;10448661;28;20431;-61
2021/05/01 09:03:11;;;;;;;;;;;13.20;83.60;;;;;;10450860;28;20359;-61
2021/05/01 09:08:13;;;;;;;;;;;13.80;77.90;;;;;;10466339;28;20019;-61
2021/05/01 09:13:21;;;;;;;;;;;13.90;73.30;;;;;;10439263;28;20019;-61
2021/05/01 09:18:23;;;;;;;;;;;13.70;72.30;;;;;;10449206;28;20422;-61
2021/05/01 09:23:35;;;;;;;;;;;13.70;73.90;;;;;;10451703;28;19925;-61
2021/05/01 09:28:44;;;;;;;;;;;13.60;73.80;;;;;;10448932;28;19983;-61
2021/05/01 09:33:49;;;;;;;;;;;13.40;75.00;;;;;;10450774;28;19924;-61
2021/05/01 09:38:51;;;;;;;;;;;13.60;74.80;;;;;;10450880;28;19960;-61
2021/05/01 09:43:55;;;;;;;;;;;14.10;72.30;;;;;;10450731;28;20412;-61
2021/05/01 09:49:15;;;;;;;;;;;13.80;71.50;;;;;;10450941;28;19960;-61
2021/05/01 09:54:19;;;;;;;;;;;14.10;69.50;;;;;;10450648;28;20019;-61
2021/05/01 09:59:21;;;;;;;;;;;14.10;67.20;;;;;;10449843;28;20016;-62
2021/05/01 10:04:22;;;;;;;;;;;14.20;65.10;;;;;;10448409;28;20029;-61
2021/05/01 10:09:36;;;;;;;;;;;14.70;64.90;;;;;;10451030;28;19925;-62
2021/05/01 10:14:42;;;;;;;;;;;15.10;61.30;;;;;;10450192;28;20002;-62
2021/05/01 10:19:46;;;;;;;;;;;15.30;60.40;;;;;;10448494;28;20023;-61
2021/05/01 10:24:48;;;;;;;;;;;15.00;58.30;;;;;;10449750;28;20020;-62
2021/05/01 10:30:10;;;;;;;;;;;15.20;58.10;;;;;;10449778;28;19975;-62
2021/05/01 10:35:12;;;;;;;;;;;15.40;57.30;;;;;;10409077;28;19975;-61
2021/05/01 10:40:14;;;;;;;;;;;15.20;56.90;;;;;;10434137;28;20020;-62
2021/05/01 10:45:25;;;;;;;;;;;15.40;56.50;;;;;;10448858;28;20043;-61
2021/05/01 10:50:26;;;;;;;;;;;15.30;55.20;;;;;;10449171;28;19935;-62
2021/05/01 10:55:41;;;;;;;;;;;15.30;53.30;;;;;;10449266;28;19960;-62
2021/05/01 11:00:43;;;;;;;;;;;15.10;53.70;;;;;;10448502;28;19935;-62
2021/05/01 11:05:45;;;;;;;;;;;15.00;54.50;;;;;;10447497;28;19960;-61
2021/05/01 11:10:47;;;;;;;;;;;15.10;53.90;;;;;;10448194;28;19968;-61
2021/05/01 11:15:50;;;;;;;;;;;14.70;52.30;;;;;;10447497;28;19968;-61
2021/05/01 11:20:55;;;;;;;;;;;14.50;53.20;;;;;;10447554;28;20024;-61
2021/05/01 11:25:59;;;;;;;;;;;14.80;51.80;;;;;;10447001;28;19931;-61
2021/05/01 11:31:00;;;;;;;;;;;14.80;52.20;;;;;;10447240;28;20012;-61
2021/05/01 11:36:02;;;;;;;;;;;15.10;51.20;;;;;;10447879;28;20028;-62
2021/05/01 11:41:08;;;;;;;;;;;15.20;48.80;;;;;;10447111;28;20019;-62
2021/05/01 11:46:24;;;;;;;;;;;15.20;49.00;;;;;;10446997;28;19929;-61
2021/05/01 11:51:50;;;;;;;;;;;15.10;48.30;;;;;;10446862;28;19986;-61
2021/05/01 11:57:09;;;;;;;;;;;15.10;48.70;;;;;;10439395;28;20389;-62
2021/05/01 12:02:14;;;;;;;;;;;15.50;47.50;;;;;;10446738;28;19955;-61
2021/05/01 12:07:27;;;;;;;;;;;15.40;44.20;;;;;;10446635;28;19979;-61
2021/05/01 12:12:28;;;;;;;;;;;15.50;46.60;;;;;;10446125;28;19925;-61
2021/05/01 12:17:31;;;;;;;;;;;15.80;45.60;;;;;;10445554;28;19936;-62
2021/05/01 12:22:32;;;;;;;;;;;15.90;44.40;;;;;;10445911;28;19933;-62
2021/05/01 12:27:50;;;;;;;;;;;15.80;43.70;;;;;;10444856;28;19929;-62
2021/05/01 12:32:52;;;;;;;;;;;15.80;45.10;;;;;;10445815;28;20008;-62
2021/05/01 12:37:57;;;;;;;;;;;15.60;44.20;;;;;;10449111;28;19956;-62
2021/05/01 12:42:59;;;;;;;;;;;15.60;44.40;;;;;;10454084;28;20270;-61
2021/05/01 12:48:00;;;;;;;;;;;15.50;42.30;;;;;;10453963;28;20302;-62
2021/05/01 12:53:20;;;;;;;;;;;15.70;41.90;;;;;;10453717;28;19925;-62
2021/05/01 12:58:21;;;;;;;;;;;15.60;41.30;;;;;;10453029;28;19962;-62
2021/05/01 13:03:23;;;;;;;;;;;15.70;41.90;;;;;;10453348;28;20038;-62
2021/05/01 13:08:25;;;;;;;;;;;15.80;41.70;;;;;;10426650;28;19976;-62
2021/05/01 13:13:34;;;;;;;;;;;15.80;41.10;;;;;;10424050;28;19960;-62
2021/05/01 13:19:09;;;;;;;;;;;16.00;41.90;;;;;;10452386;28;20354;-62
2021/05/01 13:24:13;;;;;;;;;;;16.10;41.30;;;;;;10429841;28;19955;-62
2021/05/01 13:29:14;;;;;;;;;;;15.60;39.20;;;;;;10452699;28;20361;-62
2021/05/01 13:34:18;;;;;;;;;;;15.60;38.10;;;;;;10452298;28;20472;-62
2021/05/01 13:39:21;;;;;;;;;;;15.90;37.00;;;;;;10451224;28;19967;-61
2021/05/01 13:44:55;;;;;;;;;;;15.90;38.30;;;;;;10450429;28;20373;-62
2021/05/01 13:50:02;;;;;;;;;;;15.80;37.80;;;;;;10426869;28;19932;-61
2021/05/01 13:55:16;;;;;;;;;;;15.60;39.50;;;;;;10451051;28;20023;-62
2021/05/01 14:00:18;;;;;;;;;;;15.90;39.70;;;;;;10450166;28;20039;-62
2021/05/01 14:05:21;;;;;;;;;;;16.20;38.80;;;;;;10451059;28;20011;-61
2021/05/01 14:10:32;;;;;;;;;;;15.80;39.30;;;;;;10449129;28;20032;-62
2021/05/01 14:15:35;;;;;;;;;;;15.70;39.90;;;;;;10450983;28;19925;-61
2021/05/01 14:20:37;;;;;;;;;;;15.80;39.40;;;;;;10450454;28;19925;-61
2021/05/01 14:25:40;;;;;;;;;;;15.80;38.40;;;;;;10449711;28;19925;-62
2021/05/01 14:35:46;;;;;;;;;;;16.10;37.00;;;;;;10448671;28;19925;-62
2021/05/01 14:40:48;;;;;;;;;;;16.10;38.20;;;;;;10449132;28;20011;-62
2021/05/01 14:45:50;;;;;;;;;;;16.00;38.10;;;;;;10449506;28;20020;-62
2021/05/01 14:50:51;;;;;;;;;;;15.80;38.20;;;;;;10445979;28;20011;-62
2021/05/01 14:56:05;;;;;;;;;;;16.00;39.70;;;;;;10446425;28;20023;-61
2021/05/01 15:01:19;;;;;;;;;;;15.50;40.30;;;;;;10444235;28;20011;-61
2021/05/01 15:06:20;;;;;;;;;;;15.50;40.20;;;;;;10443668;28;19925;-62
2021/05/01 15:11:30;;;;;;;;;;;14.90;39.80;;;;;;10445693;28;19935;-62
2021/05/01 15:16:52;;;;;;;;;;;15.10;40.50;;;;;;10445763;28;20019;-61
2021/05/01 15:21:57;;;;;;;;;;;15.00;38.90;;;;;;10443709;28;19929;-61
2021/05/01 15:27:01;;;;;;;;;;;15.00;39.40;;;;;;10442685;28;20031;-61
2021/05/01 15:32:02;;;;;;;;;;;15.10;38.80;;;;;;10445517;28;20011;-61
2021/05/01 15:37:04;;;;;;;;;;;14.80;37.90;;;;;;10445568;28;19994;-62
2021/05/01 15:42:06;;;;;;;;;;;14.50;38.60;;;;;;10447334;28;19931;-61
2021/05/01 15:47:10;;;;;;;;;;;14.90;39.40;;;;;;10446676;28;19929;-61
2021/05/01 15:52:13;;;;;;;;;;;15.10;39.60;;;;;;10446861;28;20345;-61
2021/05/01 15:57:14;;;;;;;;;;;15.10;39.00;;;;;;10452637;28;20011;-61
2021/05/01 16:02:15;;;;;;;;;;;15.20;39.70;;;;;;10458879;28;20400;-61
2021/05/01 16:07:17;;;;;;;;;;;15.40;39.20;;;;;;10460763;28;19925;-62
2021/05/01 16:12:18;;;;;;;;;;;15.20;39.20;;;;;;10444287;28;20020;-62
2021/05/01 16:17:20;;;;;;;;;;;14.70;40.50;;;;;;10456449;28;20012;-61
2021/05/01 16:22:21;;;;;;;;;;;14.60;41.00;;;;;;10445103;28;20043;-62
2021/05/01 16:27:23;;;;;;;;;;;14.40;39.90;;;;;;10444684;28;19935;-61
2021/05/01 16:32:24;;;;;;;;;;;14.30;40.00;;;;;;10445205;28;19968;-61
2021/05/01 16:37:27;;;;;;;;;;;14.20;40.90;;;;;;10443549;28;19925;-62
2021/05/01 16:42:29;;;;;;;;;;;14.00;41.10;;;;;;10444275;28;20462;-62
2021/05/01 16:47:46;;;;;;;;;;;13.90;41.50;;;;;;10443912;28;20284;-61
2021/05/01 16:52:48;;;;;;;;;;;13.80;41.60;;;;;;10443347;28;20331;-61
2021/05/01 16:57:49;;;;;;;;;;;13.60;41.10;;;;;;10443341;28;20337;-61
2021/05/01 17:02:51;;;;;;;;;;;13.60;41.60;;;;;;10444120;28;20321;-62
2021/05/01 17:07:52;;;;;;;;;;;13.60;41.50;;;;;;10444081;28;19971;-62
2021/05/01 17:12:53;;;;;;;;;;;13.60;42.10;;;;;;10443964;28;19937;-61
2021/05/01 17:17:54;;;;;;;;;;;13.50;43.20;;;;;;10444120;28;19979;-61
2021/05/01 17:22:56;;;;;;;;;;;13.40;42.10;;;;;;10445471;28;20384;-61
2021/05/01 17:27:57;;;;;;;;;;;13.10;42.90;;;;;;10451192;28;20196;-61
2021/05/01 17:32:59;;;;;;;;;;;13.00;43.20;;;;;;10451116;28;20277;-62
2021/05/01 17:38:00;;;;;;;;;;;12.90;43.20;;;;;;10450296;28;20016;-61
2021/05/01 17:43:02;;;;;;;;;;;12.60;43.30;;;;;;10450569;28;20031;-61
2021/05/01 17:48:04;;;;;;;;;;;12.50;43.60;;;;;;10450861;28;19960;-61
2021/05/01 17:53:06;;;;;;;;;;;12.50;43.90;;;;;;10451181;28;19933;-61
2021/05/01 17:58:07;;;;;;;;;;;12.40;44.00;;;;;;10455807;28;19935;-61
2021/05/01 18:03:28;;;;;;;;;;;12.30;44.70;;;;;;10449109;28;19931;-61
2021/05/01 18:08:30;;;;;;;;;;;12.20;44.30;;;;;;10449361;28;20293;-62
2021/05/01 18:13:32;;;;;;;;;;;12.00;44.60;;;;;;10448807;28;20304;-61
2021/05/01 18:18:33;;;;;;;;;;;11.90;45.00;;;;;;10447474;28;20396;-61
2021/05/01 18:23:34;;;;;;;;;;;11.90;45.50;;;;;;10449171;28;20027;-61
2021/05/01 18:28:35;;;;;;;;;;;11.80;46.30;;;;;;10448935;28;19950;-61
2021/05/01 18:33:38;;;;;;;;;;;11.80;46.10;;;;;;10448148;28;20015;-61
2021/05/01 18:38:39;;;;;;;;;;;11.70;45.50;;;;;;10448305;28;20374;-61
2021/05/01 18:43:40;;;;;;;;;;;11.60;46.20;;;;;;10447938;28;19925;-61
2021/05/01 18:48:44;;;;;;;;;;;11.50;45.40;;;;;;10447929;28;19990;-61
2021/05/01 18:53:46;;;;;;;;;;;11.40;46.70;;;;;;10448298;28;19929;-61
2021/05/01 18:58:47;;;;;;;;;;;11.40;46.30;;;;;;10447881;28;19928;-61
2021/05/01 19:03:48;;;;;;;;;;;11.30;46.30;;;;;;10447549;28;19960;-61
2021/05/01 19:08:50;;;;;;;;;;;11.20;46.30;;;;;;10447004;28;19931;-61
2021/05/01 19:13:57;;;;;;;;;;;11.20;46.60;;;;;;10453473;28;20296;-61
2021/05/01 19:18:59;;;;;;;;;;;11.10;46.80;;;;;;10487229;28;20460;-61
2021/05/01 19:24:00;;;;;;;;;;;11.00;46.50;;;;;;10485814;28;20049;-61
2021/05/01 19:29:02;;;;;;;;;;;10.90;46.70;;;;;;10482775;28;20022;-61
2021/05/01 19:34:03;;;;;;;;;;;10.90;47.40;;;;;;10488427;28;20015;-65
2021/05/01 19:39:05;;;;;;;;;;;10.90;47.20;;;;;;10468309;28;20040;-64
2021/05/01 19:44:07;;;;;;;;;;;10.70;47.80;;;;;;10447499;28;19925;-64
2021/05/01 19:49:10;;;;;;;;;;;10.60;47.10;;;;;;10445803;28;19929;-64
2021/05/01 19:54:11;;;;;;;;;;;10.60;48.20;;;;;;10447492;28;20034;-65
2021/05/01 19:59:12;;;;;;;;;;;10.50;48.40;;;;;;10446815;28;20448;-64
2021/05/01 20:04:14;;;;;;;;;;;10.50;48.60;;;;;;10446617;28;19968;-65
2021/05/01 20:09:16;;;;;;;;;;;10.40;49.30;;;;;;10446248;28;19988;-64
2021/05/01 20:14:17;;;;;;;;;;;10.40;48.40;;;;;;10445488;28;20352;-64
2021/05/01 20:19:18;;;;;;;;;;;10.30;49.30;;;;;;10446350;28;20015;-64
2021/05/01 20:24:20;;;;;;;;;;;10.30;49.40;;;;;;10445885;28;19936;-65
2021/05/01 20:29:21;;;;;;;;;;;10.30;48.90;;;;;;10445938;28;20023;-64
2021/05/01 20:34:23;;;;;;;;;;;10.20;48.70;;;;;;10444443;28;19979;-64
2021/05/01 20:39:24;;;;;;;;;;;10.20;49.40;;;;;;10444243;28;19925;-64
2021/05/01 20:44:25;;;;;;;;;;;10.20;49.80;;;;;;10443570;28;19935;-64
2021/05/01 20:49:27;;;;;;;;;;;10.20;48.50;;;;;;10442915;28;19925;-64
2021/05/01 20:54:28;;;;;;;;;;;10.20;49.50;;;;;;10444896;28;20099;-64
2021/05/01 20:59:29;;;;;;;;;;;10.00;49.60;;;;;;10448468;28;19925;-64
2021/05/01 21:04:31;;;;;;;;;;;10.00;49.90;;;;;;10450504;28;20351;-66
2021/05/01 21:09:32;;;;;;;;;;;10.00;49.70;;;;;;10450491;28;19968;-65
2021/05/01 21:14:33;;;;;;;;;;;10.00;49.90;;;;;;10452534;28;19931;-64
2021/05/01 21:19:34;;;;;;;;;;;10.00;50.70;;;;;;10451174;28;20464;-65
2021/05/01 21:24:36;;;;;;;;;;;9.90;50.60;;;;;;10451351;28;19982;-65
2021/05/01 21:29:37;;;;;;;;;;;9.90;51.20;;;;;;10452250;28;19968;-65
2021/05/01 21:34:38;;;;;;;;;;;9.80;51.70;;;;;;10451373;28;19929;-65
2021/05/01 21:39:42;;;;;;;;;;;9.80;52.40;;;;;;10449234;28;20350;-65
2021/05/01 21:44:44;;;;;;;;;;;9.70;52.90;;;;;;10439152;28;20331;-65
2021/05/01 21:49:45;;;;;;;;;;;9.60;52.80;;;;;;10434568;28;19925;-65
2021/05/01 21:54:47;;;;;;;;;;;9.50;53.60;;;;;;10434948;28;20045;-65
2021/05/01 21:59:48;;;;;;;;;;;9.50;53.50;;;;;;10448882;28;19955;-65
2021/05/01 22:04:50;;;;;;;;;;;9.50;54.20;;;;;;10432239;28;20369;-65
2021/05/01 22:09:51;;;;;;;;;;;9.50;54.30;;;;;;10447378;28;20167;-64
2021/05/01 22:14:52;;;;;;;;;;;9.50;55.10;;;;;;10449163;28;20032;-64
2021/05/01 22:19:58;;;;;;;;;;;9.50;55.60;;;;;;10448988;28;19928;-64
2021/05/01 22:25:05;;;;;;;;;;;9.50;56.50;;;;;;10447231;28;20383;-64
2021/05/01 22:30:06;;;;;;;;;;;9.40;57.30;;;;;;10433200;28;20011;-64
2021/05/01 22:35:08;;;;;;;;;;;9.30;58.00;;;;;;10447858;28;20401;-64
2021/05/01 22:40:09;;;;;;;;;;;9.30;58.30;;;;;;10448552;28;19924;-64
2021/05/01 22:45:12;;;;;;;;;;;9.20;58.20;;;;;;10448380;28;19935;-65
2021/05/01 22:50:13;;;;;;;;;;;9.30;58.60;;;;;;10447437;28;20418;-64
2021/05/01 22:55:14;;;;;;;;;;;9.20;58.70;;;;;;10445965;28;19932;-64
2021/05/01 23:00:17;;;;;;;;;;;9.20;58.40;;;;;;10432276;28;19964;-64
2021/05/01 23:05:19;;;;;;;;;;;9.10;58.40;;;;;;10446329;28;19924;-64
2021/05/01 23:10:20;;;;;;;;;;;9.10;59.00;;;;;;10447151;28;20463;-64
2021/05/01 23:15:23;;;;;;;;;;;9.10;59.00;;;;;;10447680;28;19961;-64
2021/05/01 23:20:26;;;;;;;;;;;9.00;59.10;;;;;;10447238;28;19929;-64
2021/05/01 23:25:30;;;;;;;;;;;9.00;59.60;;;;;;10446069;28;19925;-64
2021/05/01 23:30:32;;;;;;;;;;;9.00;59.60;;;;;;10421798;28;20348;-64
2021/05/01 23:35:33;;;;;;;;;;;9.10;59.70;;;;;;10439893;28;20380;-65
2021/05/01 23:40:35;;;;;;;;;;;9.10;59.20;;;;;;10446614;28;19932;-64
2021/05/01 23:45:36;;;;;;;;;;;9.10;59.50;;;;;;10446281;28;19931;-64
2021/05/01 23:50:38;;;;;;;;;;;9.10;59.70;;;;;;10446478;28;19960;-64
2021/05/01 23:55:39;;;;;;;;;;;9.10;59.70;;;;;;10444916;28;20411;-64
